Time;durP1;ratioP1;P1;durP2;ratioP2;P2;SDS_P1;SDS_P2;PMS_P1;PMS_P2;Temp;Humidity;BMP_temperature;BMP_pressure;BME280_temperature;BME280_humidity;BME280_pressure;Samples;Min_cycle;Max_cycle;Signal;HPM_P1;HPM_P2
2022/06/06 00:00:35;;;;;;;114.45;62.53;;;;;;;;;;5102521;28;20078;-57
2022/06/06 00:03:01;;;;;;;112.55;60.28;;;;;;;;;;5088272;28;20035;-56
2022/06/06 00:05:27;;;;;;;101.43;57.60;;;;;;;;;;5093307;28;20622;-57
2022/06/06 00:07:53;;;;;;;98.30;55.03;;;;;;;;;;5088927;28;20073;-58
2022/06/06 00:10:20;;;;;;;96.45;54.70;;;;;;;;;;5096958;28;20095;-58
2022/06/06 00:12:47;;;;;;;93.13;53.00;;;;;;;;;;5097887;28;20300;-56
2022/06/06 00:15:14;;;;;;;93.15;52.08;;;;;;;;;;5083125;28;20653;-57
2022/06/06 00:17:40;;;;;;;90.72;53.10;;;;;;;;;;5096140;28;20424;-56
2022/06/06 00:20:06;;;;;;;90.28;52.50;;;;;;;;;;5095398;28;20052;-56
2022/06/06 00:22:32;;;;;;;84.38;50.25;;;16.50;99.90;;;;;;5095139;28;20020;-58
2022/06/06 00:24:58;;;;;;;86.50;49.33;;;16.60;99.90;;;;;;5097284;28;20474;-57
2022/06/06 00:27:23;;;;;;;83.38;47.95;;;16.50;99.90;;;;;;5093304;28;20054;-57
2022/06/06 00:29:50;;;;;;;84.85;49.80;;;16.50;99.90;;;;;;5085152;28;20036;-58
2022/06/06 00:35:04;;;;;;;80.82;48.70;;;;;;;;;;5086964;28;20611;-58
2022/06/06 00:37:32;;;;;;;76.63;46.33;;;;;;;;;;5104901;28;20043;-56
2022/06/06 00:39:58;;;;;;;74.20;46.50;;;;;;;;;;5093323;28;20917;-56
2022/06/06 00:42:30;;;;;;;75.57;45.30;;;;;;;;;;5096759;28;20051;-57
2022/06/06 00:45:15;;;;;;;73.72;43.17;;;;;;;;;;5090220;28;20081;-57
2022/06/06 00:47:42;;;;;;;69.32;42.20;;;;;;;;;;5092766;28;20076;-58
2022/06/06 00:50:17;;;;;;;72.25;42.70;;;;;;;;;;5089145;28;20051;-58
2022/06/06 00:52:44;;;;;;;68.65;41.85;;;;;;;;;;5092140;28;20112;-57
2022/06/06 00:55:16;;;;;;;66.63;40.60;;;;;;;;;;5093293;28;20079;-57
2022/06/06 00:57:47;;;;;;;62.97;40.17;;;;;;;;;;5096555;28;20035;-57
2022/06/06 01:00:15;;;;;;;66.18;40.05;;;;;;;;;;5099127;28;20027;-57
2022/06/06 01:02:42;;;;;;;62.03;39.35;;;;;;;;;;5098246;28;20102;-58
2022/06/06 01:05:09;;;;;;;62.00;38.78;;;;;;;;;;5097172;28;20750;-56
2022/06/06 01:07:35;;;;;;;62.92;37.85;;;;;;;;;;5090389;28;20097;-58
2022/06/06 01:10:01;;;;;;;59.20;36.55;;;;;;;;;;5094619;28;20024;-57
2022/06/06 01:12:29;;;;;;;55.20;34.65;;;;;;;;;;5085482;28;20459;-57
2022/06/06 01:14:58;;;;;;;57.92;35.05;;;;;;;;;;5100475;28;20114;-58
2022/06/06 01:17:27;;;;;;;56.08;34.35;;;;;;;;;;5098616;28;20278;-57
2022/06/06 01:20:12;;;;;;;57.65;34.13;;;;;;;;;;5096213;28;20063;-57
2022/06/06 01:22:56;;;;;;;61.88;36.65;;;;;;;;;;5092031;28;20030;-57
2022/06/06 01:25:22;;;;;;;57.30;34.05;;;;;;;;;;5090052;28;20028;-57
2022/06/06 01:27:49;;;;;;;59.80;34.35;;;;;;;;;;5097066;28;20024;-55
2022/06/06 01:30:17;;;;;;;61.20;35.22;;;;;;;;;;5089513;28;20153;-58
2022/06/06 01:32:45;;;;;;;59.38;34.80;;;;;;;;;;5098165;28;20718;-57
2022/06/06 01:35:11;;;;;;;58.47;34.20;;;;;;;;;;5079845;27;20042;-56
2022/06/06 01:37:41;;;;;;;62.47;34.97;;;;;;;;;;5101526;28;20020;-57
2022/06/06 01:40:13;;;;;;;58.85;33.78;;;;;;;;;;5085453;28;20023;-57
2022/06/06 01:42:43;;;;;;;62.03;34.63;;;;;;;;;;5098692;28;20769;-58
2022/06/06 01:45:13;;;;;;;66.18;35.53;;;;;;;;;;5086554;28;20908;-57
2022/06/06 01:47:43;;;;;;;61.60;33.60;;;;;;;;;;5091439;28;20420;-57
2022/06/06 01:50:10;;;;;;;63.55;34.85;;;;;;;;;;5086021;28;20024;-57
2022/06/06 01:53:15;;;;;;;60.92;35.50;;;;;;;;;;5095190;28;20019;-57
2022/06/06 01:55:42;;;;;;;61.25;33.78;;;;;;;;;;5055385;28;20032;-58
2022/06/06 01:58:11;;;;;;;56.97;33.35;;;;;;;;;;5052128;28;20021;-58
2022/06/06 02:00:38;;;;;;;57.75;34.10;;;;;;;;;;5074415;28;20040;-57
2022/06/06 02:03:04;;;;;;;60.20;34.75;;;;;;;;;;5093516;28;20111;-57
2022/06/06 02:05:30;;;;;;;63.00;34.83;;;;;;;;;;5096134;28;20023;-57
2022/06/06 02:07:57;;;;;;;60.38;34.85;;;;;;;;;;5098080;28;20024;-57
2022/06/06 02:10:23;;;;;;;57.72;34.30;;;;;;;;;;5099064;28;20436;-58
2022/06/06 02:12:49;;;;;;;66.78;35.85;;;;;;;;;;5086178;28;20522;-57
2022/06/06 02:15:18;;;;;;;63.42;35.78;;;;;;;;;;5096235;28;20055;-57
2022/06/06 02:17:44;;;;;;;58.00;34.95;;;;;;;;;;5089029;28;20032;-56
2022/06/06 02:20:11;;;;;;;59.55;34.63;;;;;;;;;;5089878;28;20019;-57
2022/06/06 02:22:37;;;;;;;61.10;36.42;;;16.50;99.90;;;;;;5092741;28;20858;-57
2022/06/06 02:25:04;;;;;;;59.72;35.22;;;16.90;99.90;;;;;;5089788;28;20498;-57
2022/06/06 02:27:30;;;;;;;63.03;37.47;;;16.70;99.90;;;;;;5087923;28;20032;-57
2022/06/06 02:29:56;;;;;;;60.78;36.28;;;16.80;99.90;;;;;;5094019;28;20031;-57
2022/06/06 02:32:21;;;;;;;62.67;36.10;;;16.60;99.90;;;;;;5089549;28;20036;-58
2022/06/06 02:34:47;;;;;;;60.22;35.83;;;16.60;99.90;;;;;;5086000;28;20024;-58
2022/06/06 02:37:13;;;;;;;63.35;37.15;;;16.50;99.90;;;;;;5093370;28;20012;-58
2022/06/06 02:39:39;;;;;;;64.20;38.38;;;16.60;99.90;;;;;;5087174;28;20531;-58
2022/06/06 02:42:05;;;;;;;63.95;37.50;;;16.50;99.90;;;;;;5091779;28;20141;-57
2022/06/06 02:44:31;;;;;;;66.22;37.92;;;16.60;99.90;;;;;;5087195;28;20032;-58
2022/06/06 02:46:56;;;;;;;62.45;35.20;;;16.10;99.90;;;;;;5098395;28;20061;-55
2022/06/06 02:49:22;;;;;;;63.47;37.00;;;16.60;99.90;;;;;;5089976;28;20563;-57
2022/06/06 02:51:48;;;;;;;64.22;37.47;;;16.60;99.90;;;;;;5089008;28;20032;-57
2022/06/06 02:54:13;;;;;;;62.53;36.95;;;16.50;99.90;;;;;;5094068;28;20076;-58
2022/06/06 02:56:39;;;;;;;65.55;37.38;;;16.40;99.90;;;;;;5101261;28;20069;-58
2022/06/06 02:59:07;;;;;;;67.20;37.67;;;16.50;99.90;;;;;;5087381;28;20023;-57
2022/06/06 03:01:33;;;;;;;61.00;36.00;;;16.50;99.90;;;;;;5101925;28;20455;-57
2022/06/06 03:03:58;;;;;;;60.28;34.58;;;16.50;99.90;;;;;;5084927;28;20041;-57
2022/06/06 03:06:58;;;;;;;57.78;32.83;;;16.60;99.90;;;;;;5100379;28;20027;-58
2022/06/06 03:09:41;;;;;;;49.92;30.70;;;16.50;99.90;;;;;;5088704;28;20035;-56
2022/06/06 03:12:51;;;;;;;45.85;27.63;;;16.50;99.90;;;;;;5089303;28;20020;-57
2022/06/06 03:15:41;;;;;;;41.75;25.55;;;16.60;99.90;;;;;;5082400;28;20599;-57
2022/06/06 03:21:56;;;;;;;36.35;21.15;;;16.40;99.90;;;;;;5090774;28;20034;-56
2022/06/06 03:24:32;;;;;;;31.60;20.05;;;16.40;99.90;;;;;;5088827;28;20616;-57
2022/06/06 03:27:17;;;;;;;29.95;18.90;;;16.50;99.90;;;;;;5080531;28;20467;-57
2022/06/06 03:29:59;;;;;;;27.15;17.15;;;;;;;;;;5092878;28;20031;-57
2022/06/06 03:32:44;;;;;;;27.65;18.23;;;16.50;99.90;;;;;;5096161;28;20105;-56
2022/06/06 03:35:20;;;;;;;27.40;16.95;;;;;;;;;;5087108;28;20027;-57
2022/06/06 03:37:53;;;;;;;30.50;18.17;;;;;;;;;;5101225;28;20020;-58
2022/06/06 03:40:30;;;;;;;25.48;16.73;;;16.20;99.90;;;;;;5082751;28;20081;-57
2022/06/06 03:43:33;;;;;;;30.65;17.70;;;16.40;99.90;;;;;;5099894;28;20096;-58
2022/06/06 03:46:05;;;;;;;28.02;18.38;;;;;;;;;;5099305;28;20068;-57
2022/06/06 03:48:43;;;;;;;27.88;17.35;;;16.30;99.90;;;;;;5095360;28;20057;-56
2022/06/06 03:51:11;;;;;;;27.17;17.40;;;;;;;;;;5085546;28;20081;-57
2022/06/06 03:53:37;;;;;;;27.33;17.10;;;16.20;99.90;;;;;;5102150;28;20496;-57
2022/06/06 03:56:40;;;;;;;23.90;16.50;;;16.30;99.90;;;;;;5101263;28;20027;-58
2022/06/06 03:59:08;;;;;;;27.92;17.50;;;16.40;99.90;;;;;;5082327;28;20486;-57
2022/06/06 04:01:37;;;;;;;23.23;15.85;;;16.40;99.90;;;;;;5102915;28;20036;-58
2022/06/06 04:04:04;;;;;;;31.67;17.27;;;16.30;99.90;;;;;;5083940;28;20055;-58
2022/06/06 04:06:32;;;;;;;25.80;16.27;;;16.40;99.90;;;;;;5100243;28;20035;-56
2022/06/06 04:08:57;;;;;;;23.27;16.05;;;16.20;99.90;;;;;;5088014;28;20093;-58
2022/06/06 04:11:39;;;;;;;25.85;16.90;;;16.30;99.90;;;;;;5091518;28;20024;-56
2022/06/06 04:14:29;;;;;;;25.58;16.70;;;16.50;99.90;;;;;;5094733;28;20031;-57
2022/06/06 04:17:10;;;;;;;22.40;15.98;;;16.50;99.90;;;;;;5092717;28;20015;-57
2022/06/06 04:20:07;;;;;;;27.15;16.63;;;16.60;99.90;;;;;;5089419;28;20600;-57
2022/06/06 04:22:57;;;;;;;25.35;15.95;;;16.30;99.90;;;;;;5077833;28;20111;-56
2022/06/06 04:25:44;;;;;;;24.73;16.15;;;16.20;99.90;;;;;;5097785;28;20035;-57
2022/06/06 04:28:32;;;;;;;24.35;15.45;;;16.20;99.90;;;;;;5096104;28;20774;-58
2022/06/06 04:31:31;;;;;;;25.23;15.43;;;16.30;99.90;;;;;;5095387;28;20435;-57
2022/06/06 04:34:09;;;;;;;23.35;15.40;;;16.30;99.90;;;;;;5099078;28;20606;-57
2022/06/06 04:36:43;;;;;;;22.42;14.30;;;16.10;99.90;;;;;;5091139;27;20020;-58
2022/06/06 04:39:25;;;;;;;22.33;14.93;;;16.40;99.90;;;;;;5096874;28;20047;-57
2022/06/06 04:42:05;;;;;;;23.00;14.32;;;16.50;99.90;;;;;;5090966;28;20432;-58
2022/06/06 04:44:38;;;;;;;23.90;15.27;;;16.40;99.90;;;;;;5105460;28;20065;-58
2022/06/06 04:47:38;;;;;;;25.15;15.23;;;16.50;99.90;;;;;;5093357;28;20027;-57
2022/06/06 04:50:10;;;;;;;24.17;15.85;;;16.60;99.90;;;;;;5096442;28;20518;-57
2022/06/06 04:52:38;;;;;;;24.52;15.10;;;16.60;99.90;;;;;;5095380;28;20051;-58
2022/06/06 04:55:07;;;;;;;25.67;14.95;;;16.40;99.90;;;;;;5089140;28;20451;-59
2022/06/06 04:57:35;;;;;;;22.02;14.13;;;16.40;99.90;;;;;;5099851;28;20227;-58
2022/06/06 05:00:03;;;;;;;20.55;13.48;;;16.50;99.90;;;;;;5097397;28;20224;-57
2022/06/06 05:02:30;;;;;;;21.10;14.10;;;16.30;99.90;;;;;;5102173;28;20042;-56
2022/06/06 05:04:55;;;;;;;21.38;13.57;;;16.40;99.90;;;;;;5083779;28;20394;-58
2022/06/06 05:07:39;;;;;;;20.73;13.65;;;16.30;99.90;;;;;;5094524;28;20103;-58
2022/06/06 05:10:23;;;;;;;19.67;12.65;;;16.20;99.90;;;;;;5088908;28;20449;-57
2022/06/06 05:13:23;;;;;;;20.40;13.20;;;16.20;99.90;;;;;;5092589;28;20039;-58
2022/06/06 05:16:03;;;;;;;19.92;14.02;;;16.30;99.90;;;;;;5088513;28;20035;-57
2022/06/06 05:18:40;;;;;;;19.50;13.32;;;16.20;99.90;;;;;;5092015;28;20015;-56
2022/06/06 05:21:33;;;;;;;20.05;12.80;;;16.20;99.90;;;;;;5098037;28;20048;-57
2022/06/06 05:24:32;;;;;;;15.43;12.10;;;16.20;99.90;;;;;;5101222;28;20471;-58
2022/06/06 05:27:20;;;;;;;18.85;12.75;;;16.40;99.90;;;;;;5082995;28;20072;-57
2022/06/06 05:30:26;;;;;;;17.17;12.10;;;16.40;99.90;;;;;;5094433;28;20523;-58
2022/06/06 05:33:01;;;;;;;18.33;11.43;;;16.70;99.90;;;;;;5093270;28;20034;-56
2022/06/06 05:35:46;;;;;;;18.13;11.80;;;;;;;;;;5096629;28;20047;-57
2022/06/06 05:38:14;;;;;;;17.10;10.75;;;16.70;99.90;;;;;;5086931;28;20115;-57
2022/06/06 05:40:45;;;;;;;14.40;9.80;;;;;;;;;;5098345;28;20089;-58
2022/06/06 05:43:20;;;;;;;16.02;11.13;;;17.00;99.90;;;;;;5089056;28;20078;-56
2022/06/06 05:46:04;;;;;;;15.27;10.65;;;16.80;99.90;;;;;;5098263;28;20046;-56
2022/06/06 05:48:40;;;;;;;18.92;10.73;;;;;;;;;;5099666;28;20026;-58
2022/06/06 05:51:19;;;;;;;17.65;11.77;;;17.00;99.90;;;;;;5080692;28;20070;-58
2022/06/06 05:53:47;;;;;;;19.67;10.95;;;17.10;99.90;;;;;;5093032;28;20028;-57
2022/06/06 05:56:35;;;;;;;18.13;10.43;;;17.20;99.90;;;;;;5083261;28;20039;-57
2022/06/06 05:59:22;;;;;;;14.25;9.57;;;;;;;;;;5081818;28;20378;-58
2022/06/06 06:02:14;;;;;;;15.88;9.30;;;17.00;99.90;;;;;;5093669;28;20038;-59
2022/06/06 06:05:08;;;;;;;12.63;8.63;;;17.20;99.90;;;;;;5090409;28;20027;-58
2022/06/06 06:07:51;;;;;;;14.07;8.20;;;17.20;99.90;;;;;;5095958;28;20024;-57
2022/06/06 06:10:31;;;;;;;13.15;8.25;;;17.10;99.90;;;;;;5086916;28;20513;-58
2022/06/06 06:13:15;;;;;;;13.35;8.23;;;17.00;99.90;;;;;;5098489;28;20529;-57
2022/06/06 06:15:43;;;;;;;12.57;8.10;;;17.00;99.90;;;;;;5094986;28;20051;-58
2022/06/06 06:18:32;;;;;;;11.68;7.88;;;17.00;99.90;;;;;;5089001;28;20054;-57
2022/06/06 06:21:03;;;;;;;13.27;7.63;;;17.00;99.90;;;;;;5077023;28;20621;-58
2022/06/06 06:23:32;;;;;;;11.05;7.43;;;17.10;99.90;;;;;;5085675;28;20115;-57
2022/06/06 06:26:03;;;;;;;12.10;7.80;;;17.00;99.90;;;;;;5099178;28;20398;-57
2022/06/06 06:28:32;;;;;;;11.30;7.22;;;;;;;;;;5094948;28;20055;-57
2022/06/06 06:31:23;;;;;;;10.45;7.35;;;17.20;99.90;;;;;;5088721;28;20028;-58
2022/06/06 06:34:01;;;;;;;11.10;6.30;;;17.30;99.90;;;;;;5085276;28;20023;-58
2022/06/06 06:36:44;;;;;;;12.07;6.63;;;17.30;99.90;;;;;;5086828;28;20016;-58
2022/06/06 06:39:38;;;;;;;8.40;5.93;;;16.90;99.90;;;;;;5096512;28;20044;-56
2022/06/06 06:42:14;;;;;;;6.88;5.22;;;;;;;;;;5099168;28;20042;-57
2022/06/06 06:44:46;;;;;;;7.95;5.32;;;17.30;99.90;;;;;;5101065;28;20028;-57
2022/06/06 06:47:18;;;;;;;7.03;4.78;;;17.40;99.90;;;;;;5092607;28;20027;-57
2022/06/06 06:50:29;;;;;;;9.68;4.65;;;17.30;99.90;;;;;;5082635;28;20054;-58
2022/06/06 06:53:16;;;;;;;7.95;5.07;;;17.80;99.90;;;;;;5096438;28;20516;-59
2022/06/06 06:56:10;;;;;;;9.50;5.00;;;17.60;99.90;;;;;;5092740;28;20028;-58
2022/06/06 06:58:51;;;;;;;7.82;5.20;;;17.70;99.90;;;;;;5098667;28;20016;-58
2022/06/06 07:01:19;;;;;;;6.35;5.07;;;;;;;;;;5086967;28;20032;-58
2022/06/06 07:09:56;;;;;;;7.88;4.75;;;;;;;;;;5088585;28;20031;-59
2022/06/06 07:12:28;;;;;;;7.65;4.82;;;;;;;;;;5093270;28;20584;-57
2022/06/06 07:15:18;;;;;;;6.68;4.32;;;;;;;;;;5082338;28;20084;-58
2022/06/06 07:17:58;;;;;;;7.10;4.32;;;;;;;;;;5089413;28;20031;-58
2022/06/06 07:20:25;;;;;;;8.02;4.00;;;;;;;;;;5087982;28;20012;-58
2022/06/06 07:23:04;;;;;;;9.23;3.63;;;;;;;;;;5101740;28;20023;-58
2022/06/06 07:25:33;;;;;;;6.00;3.08;;;;;;;;;;5094421;28;20043;-59
2022/06/06 07:28:00;;;;;;;6.47;3.30;;;;;;;;;;5079746;28;20040;-58
2022/06/06 07:30:29;;;;;;;4.18;2.83;;;;;;;;;;5090138;28;20336;-58
2022/06/06 07:33:24;;;;;;;6.10;2.88;;;;;;;;;;5081574;28;20376;-57
2022/06/06 07:36:09;;;;;;;8.07;3.25;;;;;;;;;;5086767;28;20035;-58
2022/06/06 07:38:43;;;;;;;3.67;2.92;;;;;;;;;;5090871;28;20017;-58
2022/06/06 07:41:20;;;;;;;9.20;3.25;;;;;;;;;;5094388;28;20023;-58
2022/06/06 07:43:52;;;;;;;7.88;3.05;;;;;;;;;;5095284;28;20031;-58
2022/06/06 07:46:18;;;;;;;4.47;2.45;;;;;;;;;;5091387;28;20085;-59
2022/06/06 07:49:04;;;;;;;7.30;2.72;;;;;;;;;;5080129;28;20028;-57
2022/06/06 07:51:56;;;;;;;5.13;2.72;;;;;;;;;;5082517;28;20024;-57
2022/06/06 07:54:22;;;;;;;6.75;2.67;;;;;;;;;;5086633;28;20120;-57
2022/06/06 07:56:55;;;;;;;6.38;2.65;;;;;;;;;;5094996;28;20102;-57
2022/06/06 07:59:31;;;;;;;7.40;2.40;;;;;;;;;;5093440;28;20016;-58
2022/06/06 08:02:03;;;;;;;3.63;1.92;;;;;;;;;;5093627;28;20034;-57
2022/06/06 08:04:31;;;;;;;3.08;2.08;;;;;;;;;;5093469;28;20536;-57
2022/06/06 08:07:03;;;;;;;5.10;2.00;;;;;;;;;;5091932;28;20056;-58
2022/06/06 08:09:42;;;;;;;4.82;1.98;;;;;;;;;;5077140;28;20021;-58
2022/06/06 08:12:16;;;;;;;2.33;1.60;;;;;;;;;;5088718;28;20036;-58
2022/06/06 08:15:03;;;;;;;7.07;1.70;;;;;;;;;;5086079;28;20073;-58
2022/06/06 08:17:29;;;;;;;2.72;1.20;;;;;;;;;;5097001;28;20016;-58
2022/06/06 08:20:07;;;;;;;5.88;1.80;;;;;;;;;;5092605;28;20030;-58
2022/06/06 08:22:35;;;;;;;5.93;1.80;;;;;;;;;;5102485;28;20737;-58
2022/06/06 08:25:03;;;;;;;5.35;1.42;;;;;;;;;;5083458;27;20090;-58
2022/06/06 08:27:29;;;;;;;3.05;1.45;;;;;;;;;;5100698;28;20036;-57
2022/06/06 08:29:55;;;;;;;3.28;1.20;;;;;;;;;;5092889;28;20046;-58
2022/06/06 08:32:22;;;;;;;2.40;1.38;;;;;;;;;;5100539;28;20035;-58
2022/06/06 08:34:48;;;;;;;3.55;1.50;;;;;;;;;;5091560;28;20015;-58
2022/06/06 08:37:27;;;;;;;3.13;1.60;;;;;;;;;;5078377;28;20020;-58
2022/06/06 08:40:04;;;;;;;3.45;1.50;;;;;;;;;;5099814;28;20019;-58
2022/06/06 08:42:39;;;;;;;3.38;1.63;;;;;;;;;;5086520;28;20171;-58
2022/06/06 08:45:10;;;;;;;1.90;1.00;;;;;;;;;;5096815;28;20950;-58
2022/06/06 08:47:49;;;;;;;1.85;1.17;;;;;;;;;;5089657;28;20099;-57
2022/06/06 08:50:44;;;;;;;2.85;1.30;;;;;;;;;;5103993;28;20023;-58
2022/06/06 08:53:22;;;;;;;2.90;1.30;;;;;;;;;;5092303;28;20081;-58
2022/06/06 08:55:51;;;;;;;3.13;1.30;;;;;;;;;;5085530;28;20383;-58
2022/06/06 08:58:39;;;;;;;4.78;1.38;;;;;;;;;;5102041;28;20085;-58
2022/06/06 09:01:17;;;;;;;3.03;1.30;;;;;;;;;;5088809;27;20063;-58
2022/06/06 09:03:55;;;;;;;2.50;1.10;;;;;;;;;;5102176;28;20103;-58
2022/06/06 09:06:24;;;;;;;2.30;1.20;;;;;;;;;;5080548;28;20028;-58
2022/06/06 09:09:05;;;;;;;4.38;1.00;;;;;;;;;;5088148;28;20540;-58
2022/06/06 09:11:54;;;;;;;1.17;0.93;;;;;;;;;;5084949;28;20025;-58
2022/06/06 09:14:32;;;;;;;2.50;1.08;;;;;;;;;;5079168;28;20034;-58
2022/06/06 09:17:07;;;;;;;5.13;1.30;;;;;;;;;;5092783;28;20457;-58
2022/06/06 09:19:52;;;;;;;2.10;1.08;;;;;;;;;;5090268;28;20031;-58
2022/06/06 09:22:42;;;;;;;1.63;1.13;;;;;;;;;;5094850;28;20068;-58
2022/06/06 09:25:14;;;;;;;2.78;1.45;;;;;;;;;;5075776;28;20487;-59
2022/06/06 09:27:49;;;;;;;3.13;1.00;;;;;;;;;;5092210;28;20112;-58
2022/06/06 09:30:27;;;;;;;1.35;1.05;;;;;;;;;;5083340;28;20074;-58
2022/06/06 09:33:12;;;;;;;2.17;1.20;;;;;;;;;;5102647;28;20027;-58
2022/06/06 09:35:50;;;;;;;1.85;0.93;;;;;;;;;;5088781;28;20398;-59
2022/06/06 09:38:35;;;;;;;3.25;1.02;;;;;;;;;;5093748;28;20048;-58
2022/06/06 09:41:07;;;;;;;1.95;0.80;;;;;;;;;;5092714;28;20028;-59
2022/06/06 09:43:45;;;;;;;2.88;0.80;;;;;;;;;;5093046;28;20028;-57
2022/06/06 09:46:24;;;;;;;1.00;0.70;;;;;;;;;;5095197;28;20034;-57
2022/06/06 09:49:08;;;;;;;4.85;0.77;;;;;;;;;;5095359;28;20375;-59
2022/06/06 09:51:53;;;;;;;2.63;0.85;;;;;;;;;;5091352;28;20082;-58
2022/06/06 10:00:09;;;;;;;1.17;0.70;;;;;;;;;;5099906;28;20111;-58
2022/06/06 10:02:38;;;;;;;2.30;1.00;;;;;;;;;;5088521;28;20032;-59
2022/06/06 10:05:20;;;;;;;1.63;1.00;;;;;;;;;;5096576;28;20058;-59
2022/06/06 10:07:49;;;;;;;3.38;0.88;;;;;;;;;;5098907;28;20090;-58
2022/06/06 10:10:44;;;;;;;2.20;0.95;;;;;;;;;;5096942;28;20701;-58
2022/06/06 10:13:20;;;;;;;6.25;1.08;;;;;;;;;;5093955;28;20040;-57
2022/06/06 10:16:13;;;;;;;1.98;1.00;;;;;;;;;;5092464;28;20629;-58
2022/06/06 10:18:58;;;;;;;6.07;1.63;;;;;;;;;;5103196;28;20012;-58
2022/06/06 10:21:42;;;;;;;4.50;1.10;;;;;;;;;;5090286;28;20021;-59
2022/06/06 10:24:20;;;;;;;2.00;1.05;;;;;;;;;;5078578;28;20032;-58
2022/06/06 10:27:02;;;;;;;1.33;0.93;;;;;;;;;;5097251;28;20107;-58
2022/06/06 10:32:40;;;;;;;2.63;1.10;;;20.60;99.90;;;;;;5099497;28;20116;-58
2022/06/06 10:35:32;;;;;;;3.20;1.08;;;19.50;99.90;;;;;;5080606;28;20032;-57
2022/06/06 10:38:28;;;;;;;20.77;2.10;;;17.90;99.90;;;;;;5092614;28;20028;-58
2022/06/06 10:41:13;;;;;;;3.65;1.38;;;;;;;;;;5086801;28;20027;-58
2022/06/06 10:44:10;;;;;;;5.15;1.40;;;16.90;99.90;;;;;;5085267;28;20021;-57
2022/06/06 10:47:00;;;;;;;3.80;1.92;;;16.60;99.90;;;;;;5100158;28;20027;-58
2022/06/06 10:49:54;;;;;;;4.07;1.40;;;16.70;99.90;;;;;;5091462;28;20028;-56
2022/06/06 10:52:44;;;;;;;2.55;1.10;;;16.50;99.90;;;;;;5097969;28;20027;-57
2022/06/06 10:55:35;;;;;;;3.45;1.70;;;16.70;99.90;;;;;;5093240;28;20040;-56
2022/06/06 10:58:28;;;;;;;5.72;1.70;;;;;;;;;;5088684;28;20028;-56
2022/06/06 11:00:54;;;;;;;3.63;1.70;;;;;;;;;;5090689;28;20020;-56
2022/06/06 11:03:20;;;;;;;8.98;1.80;;;;;;;;;;5095971;28;20435;-57
2022/06/06 11:05:52;;;;;;;3.13;1.63;;;;;;;;;;5094456;28;20042;-57
2022/06/06 11:08:27;;;;;;;6.07;1.73;;;;;;;;;;5090081;28;20506;-56
2022/06/06 11:11:05;;;;;;;4.03;1.83;;;;;;;;;;5094492;27;20146;-56
2022/06/06 11:13:31;;;;;;;3.88;1.98;;;;;;;;;;5097129;28;20137;-57
2022/06/06 11:16:16;;;;;;;5.25;1.60;;;;;;;;;;5085234;28;20051;-56
2022/06/06 11:19:01;;;;;;;2.50;1.73;;;;;;;;;;5094117;28;20114;-57
2022/06/06 11:21:45;;;;;;;3.47;1.77;;;;;;;;;;5094155;28;20632;-58
2022/06/06 11:24:31;;;;;;;2.10;1.30;;;;;;;;;;5084076;28;20024;-57
2022/06/06 11:27:09;;;;;;;2.45;1.40;;;;;;;;;;5090023;28;20031;-58
2022/06/06 11:29:54;;;;;;;3.75;1.60;;;;;;;;;;5083666;28;20364;-57
2022/06/06 11:32:28;;;;;;;4.97;1.55;;;;;;;;;;5078863;28;20035;-58
2022/06/06 11:35:12;;;;;;;2.72;1.52;;;;;;;;;;5079711;28;20024;-58
2022/06/06 11:37:50;;;;;;;3.75;1.58;;;;;;;;;;5084765;28;20593;-57
2022/06/06 11:40:25;;;;;;;3.38;1.50;;;;;;;;;;5084724;28;20463;-59
2022/06/06 11:42:58;;;;;;;3.90;1.23;;;;;;;;;;5096038;28;20051;-58
2022/06/06 11:45:53;;;;;;;2.53;1.38;;;;;;;;;;5083902;28;20086;-58
2022/06/06 11:48:22;;;;;;;3.28;1.25;;;;;;;;;;5094525;28;20019;-58
2022/06/06 11:51:01;;;;;;;1.55;1.10;;;;;;;;;;5095138;28;20063;-58
2022/06/06 11:53:30;;;;;;;2.42;1.33;;;;;;;;;;5082257;28;20024;-58
2022/06/06 11:56:06;;;;;;;3.70;1.50;;;;;;;;;;5094455;28;20032;-58
2022/06/06 11:58:48;;;;;;;1.63;1.40;;;;;;;;;;5098220;28;20426;-58
2022/06/06 12:01:27;;;;;;;3.90;1.30;;;;;;;;;;5092414;28;20016;-57
2022/06/06 12:03:59;;;;;;;4.78;1.30;;;;;;;;;;5096159;28;20160;-59
2022/06/06 12:07:04;;;;;;;1.70;1.38;;;;;;;;;;5087480;28;20016;-58
2022/06/06 12:09:39;;;;;;;5.05;1.67;;;;;;;;;;5054630;28;20523;-59
2022/06/06 12:12:08;;;;;;;1.27;1.08;;;;;;;;;;5065204;28;20028;-59
2022/06/06 12:14:52;;;;;;;2.25;1.15;;;;;;;;;;5069697;28;20040;-58
2022/06/06 12:17:18;;;;;;;3.17;1.30;;;;;;;;;;5098792;28;20038;-58
2022/06/06 12:19:47;;;;;;;2.35;1.17;;;;;;;;;;5098730;28;20020;-57
2022/06/06 12:22:20;;;;;;;3.42;1.30;;;;;;;;;;5097086;28;20039;-59
2022/06/06 12:25:13;;;;;;;3.30;1.50;;;19.10;99.90;;;;;;5092242;28;20039;-57
2022/06/06 12:27:42;;;;;;;3.03;1.70;;;19.20;99.90;;;;;;5096421;28;20031;-57
2022/06/06 12:30:18;;;;;;;4.10;1.58;;;19.20;99.90;;;;;;5095031;28;20396;-58
2022/06/06 12:32:53;;;;;;;4.07;1.63;;;19.30;99.90;;;;;;5100239;28;20068;-57
2022/06/06 12:35:42;;;;;;;3.53;1.73;;;19.40;99.90;;;;;;5078289;28;20050;-58
2022/06/06 12:38:36;;;;;;;4.60;1.45;;;19.60;99.90;;;;;;5091327;28;20027;-57
2022/06/06 12:41:13;;;;;;;2.47;1.52;;;19.80;99.90;;;;;;5086940;28;20016;-58
2022/06/06 12:43:56;;;;;;;3.97;1.40;;;19.80;99.90;;;;;;5098090;28;20031;-58
2022/06/06 12:46:42;;;;;;;2.63;1.50;;;19.70;99.90;;;;;;5100545;28;20036;-58
2022/06/06 12:49:28;;;;;;;3.22;1.10;;;19.90;99.90;;;;;;5096152;28;20596;-58
2022/06/06 12:52:02;;;;;;;3.10;1.10;;;19.90;99.90;;;;;;5098828;28;20454;-59
2022/06/06 12:57:52;;;;;;;2.00;1.00;;;20.10;99.90;;;;;;5089525;28;20035;-59
2022/06/06 13:01:37;;;;;;;1.50;1.15;;;20.10;99.90;;;;;;5092792;28;20153;-57
2022/06/06 13:03:18;;;;;;;3.80;1.08;;;;;;;;;;5096080;28;20045;-59
2022/06/06 13:06:17;;;;;;;1.70;0.85;;;20.00;99.90;;;;;;5094458;28;20295;-57
2022/06/06 13:09:23;;;;;;;3.33;1.25;;;20.30;99.90;;;;;;5089096;28;20309;-57
2022/06/06 13:12:10;;;;;;;2.83;1.27;;;20.30;99.90;;;;;;5074011;28;20066;-59
2022/06/06 13:15:10;;;;;;;3.00;0.90;;;20.40;99.90;;;;;;5101561;28;20020;-58
2022/06/06 13:18:01;;;;;;;2.47;1.10;;;20.50;99.90;;;;;;5090090;28;20074;-58
2022/06/06 13:20:40;;;;;;;1.92;0.90;;;20.70;99.90;;;;;;5090379;28;20040;-59
2022/06/06 13:23:15;;;;;;;2.03;0.75;;;;;;;;;;5095077;28;20027;-58
2022/06/06 13:25:53;;;;;;;0.88;0.68;;;;;;;;;;5100507;28;20081;-57
2022/06/06 13:28:24;;;;;;;4.30;1.05;;;;;;;;;;5088231;28;20128;-57
2022/06/06 13:30:53;;;;;;;2.63;0.90;;;;;;;;;;5087807;28;20028;-59
2022/06/06 13:33:21;;;;;;;3.10;0.90;;;;;;;;;;5100834;28;20077;-58
2022/06/06 13:35:56;;;;;;;1.38;0.80;;;;;;;;;;5082251;28;20648;-59
2022/06/06 13:38:30;;;;;;;1.33;0.90;;;;;;;;;;5095413;28;20529;-58
2022/06/06 13:41:24;;;;;;;3.17;0.98;;;20.90;99.90;;;;;;5093140;28;20020;-59
2022/06/06 13:43:57;;;;;;;2.20;0.93;;;;;;;;;;5096288;28;20020;-59
2022/06/06 13:46:44;;;;;;;3.70;1.20;;;;;;;;;;5101099;28;20022;-57
2022/06/06 13:49:19;;;;;;;2.00;0.90;;;;;;;;;;5089142;28;20043;-59
2022/06/06 13:52:04;;;;;;;1.85;1.00;;;;;;;;;;5101287;28;20030;-57
2022/06/06 13:54:36;;;;;;;1.75;0.77;;;;;;;;;;5096586;28;20018;-58
2022/06/06 13:57:05;;;;;;;3.33;1.00;;;;;;;;;;5099827;28;20364;-57
2022/06/06 13:59:43;;;;;;;3.65;0.90;;;;;;;;;;5089513;28;20532;-58
2022/06/06 14:02:16;;;;;;;2.83;0.95;;;;;;;;;;5086391;28;20115;-58
2022/06/06 14:04:45;;;;;;;5.97;1.40;;;;;;;;;;5096241;28;20081;-58
2022/06/06 14:07:33;;;;;;;3.97;1.05;;;;;;;;;;5095030;28;20031;-58
2022/06/06 14:10:12;;;;;;;2.40;0.85;;;;;;;;;;5094998;28;20150;-57
2022/06/06 14:12:59;;;;;;;2.25;0.90;;;;;;;;;;5095415;28;20027;-57
2022/06/06 14:15:28;;;;;;;4.18;0.90;;;;;;;;;;5089460;28;20065;-59
2022/06/06 14:18:00;;;;;;;1.58;0.70;;;;;;;;;;5087045;28;20051;-57
2022/06/06 14:20:57;;;;;;;2.25;0.70;;;;;;;;;;5100563;28;20019;-59
2022/06/06 14:23:30;;;;;;;1.73;0.70;;;20.70;99.90;;;;;;5084478;28;20435;-58
2022/06/06 14:26:19;;;;;;;2.10;0.80;;;21.00;99.90;;;;;;5099042;28;20421;-59
2022/06/06 14:29:04;;;;;;;3.78;0.90;;;21.00;99.90;;;;;;5099981;28;20038;-58
2022/06/06 14:31:35;;;;;;;8.02;1.02;;;;;;;;;;5080937;28;20380;-57
2022/06/06 14:34:03;;;;;;;5.07;1.00;;;;;;;;;;5098384;28;20035;-59
2022/06/06 14:36:33;;;;;;;2.15;0.90;;;;;;;;;;5079194;28;20153;-59
2022/06/06 14:39:06;;;;;;;3.30;0.90;;;;;;;;;;5085124;28;20036;-59
2022/06/06 14:41:46;;;;;;;3.58;0.88;;;20.80;99.90;;;;;;5087315;28;20050;-58
2022/06/06 14:44:14;;;;;;;2.58;0.80;;;;;;;;;;5084519;28;20024;-58
2022/06/06 14:47:08;;;;;;;1.98;0.70;;;;;;;;;;5094964;28;20027;-58
2022/06/06 14:49:38;;;;;;;1.67;0.60;;;;;;;;;;5088011;28;20351;-59
2022/06/06 14:52:19;;;;;;;3.33;0.70;;;;;;;;;;5094899;28;20042;-58
2022/06/06 14:54:56;;;;;;;1.70;0.70;;;;;;;;;;5093361;28;20581;-58
2022/06/06 14:57:26;;;;;;;1.77;0.75;;;;;;;;;;5096118;28;20035;-58
2022/06/06 14:59:53;;;;;;;2.83;0.80;;;;;;;;;;5089896;28;20900;-58
2022/06/06 15:02:22;;;;;;;2.55;0.75;;;;;;;;;;5103628;28;20020;-58